createdAt,value
2023-07-11T00:01:03.768Z,73.24
2023-07-11T00:03:30.873Z,74.46
2023-07-11T00:06:03.330Z,73.64
2023-07-11T00:08:30.503Z,74.34
2023-07-11T00:10:57.749Z,73.15
2023-07-11T00:13:25.033Z,75.20
2023-07-11T00:15:58.912Z,74.69
2023-07-11T00:18:26.229Z,74.72
2023-07-11T00:20:53.507Z,75.20
2023-07-11T00:23:20.607Z,75.21
2023-07-11T00:25:47.554Z,74.70
2023-07-11T00:28:14.715Z,74.25
2023-07-11T00:30:43.357Z,75.38
2023-07-11T00:33:11.099Z,75.99
2023-07-11T00:35:39.287Z,76.85
2023-07-11T00:38:07.513Z,77.02
2023-07-11T00:40:41.113Z,77.04
2023-07-11T00:43:12.597Z,77.13
2023-07-11T00:46:16.825Z,77.53
2023-07-11T00:48:50.891Z,77.74
2023-07-11T00:51:23.893Z,78.16
2023-07-11T00:53:51.511Z,77.71
2023-07-11T00:56:23.214Z,78.19
2023-07-11T00:58:51.355Z,78.21
2023-07-11T01:01:20.215Z,78.35
2023-07-11T01:03:49.886Z,78.73
2023-07-11T01:06:20.427Z,78.95
2023-07-11T01:08:49.440Z,78.95
2023-07-11T01:11:17.265Z,78.90
2023-07-11T01:13:45.029Z,78.55
2023-07-11T01:16:12.379Z,77.90
2023-07-11T01:18:40.105Z,76.95
2023-07-11T01:21:09.606Z,77.39
2023-07-11T01:23:36.944Z,77.80
2023-07-11T01:26:07.682Z,77.59
2023-07-11T01:28:35.440Z,78.01
2023-07-11T01:31:05.495Z,80.09
2023-07-11T01:33:33.436Z,80.71
2023-07-11T01:36:00.938Z,78.86
2023-07-11T01:38:30.524Z,77.09
2023-07-11T01:40:57.509Z,76.40
2023-07-11T01:43:24.648Z,76.33
2023-07-11T01:45:51.653Z,76.56
2023-07-11T01:48:18.847Z,77.59
2023-07-11T01:50:45.888Z,79.83
2023-07-11T01:53:12.985Z,80.11
2023-07-11T01:55:40.088Z,80.79
2023-07-11T01:58:07.131Z,80.55
2023-07-11T02:00:34.192Z,81.33
2023-07-11T02:03:02.637Z,81.63
2023-07-11T02:05:29.820Z,81.86
2023-07-11T02:07:56.784Z,81.44
2023-07-11T02:10:23.741Z,81.03
2023-07-11T02:12:50.892Z,82.10
2023-07-11T02:15:18.353Z,81.31
2023-07-11T02:17:46.380Z,81.14
2023-07-11T02:20:13.607Z,81.10
2023-07-11T02:22:41.685Z,81.29
2023-07-11T02:25:09.266Z,81.33
2023-07-11T02:27:36.307Z,80.28
2023-07-11T02:30:03.732Z,80.46
2023-07-11T02:32:31.378Z,79.85
2023-07-11T02:34:58.641Z,80.94
2023-07-11T02:37:25.713Z,81.42
2023-07-11T02:39:52.748Z,82.58
2023-07-11T02:42:19.854Z,83.94
2023-07-11T02:44:46.955Z,85.66
2023-07-11T02:47:13.974Z,85.05
2023-07-11T02:49:42.414Z,84.97
2023-07-11T02:52:12.379Z,84.07
2023-07-11T02:54:39.734Z,82.87
2023-07-11T02:57:09.196Z,82.91
2023-07-11T02:59:36.186Z,83.24
2023-07-11T03:02:03.348Z,83.98
2023-07-11T03:04:31.559Z,84.00
2023-07-11T03:06:58.665Z,84.28
2023-07-11T03:09:27.649Z,84.92
2023-07-11T03:11:54.729Z,84.07
2023-07-11T03:14:21.990Z,83.67
2023-07-11T03:16:52.925Z,84.74
2023-07-11T03:19:23.521Z,85.49
2023-07-11T03:21:50.671Z,85.66
2023-07-11T03:24:18.366Z,85.80
2023-07-11T03:26:48.577Z,85.54
2023-07-11T03:29:16.395Z,85.48
2023-07-11T03:31:44.535Z,84.90
2023-07-11T03:34:11.762Z,83.58
2023-07-11T03:36:39.609Z,82.94
2023-07-11T03:39:06.949Z,82.80
2023-07-11T03:41:34.268Z,80.98
2023-07-11T03:44:01.791Z,80.59
2023-07-11T03:46:29.143Z,79.97
2023-07-11T03:49:01.231Z,81.03
2023-07-11T03:51:28.568Z,80.75
2023-07-11T03:53:55.751Z,80.99
2023-07-11T03:56:22.887Z,81.33
2023-07-11T03:58:49.980Z,81.05
2023-07-11T04:01:17.526Z,80.60
2023-07-11T04:03:44.801Z,79.86
2023-07-11T04:06:13.235Z,79.38
2023-07-11T04:08:41.340Z,79.63
2023-07-11T04:11:08.345Z,79.07
2023-07-11T04:13:35.378Z,78.59
2023-07-11T04:16:02.489Z,79.26
2023-07-11T04:18:29.504Z,78.30
2023-07-11T04:20:56.636Z,78.62
2023-07-11T04:23:23.718Z,78.47
2023-07-11T04:25:50.739Z,78.18
2023-07-11T04:28:17.842Z,78.79
2023-07-11T04:30:44.908Z,78.21
2023-07-11T04:33:11.964Z,78.79
2023-07-11T04:35:40.409Z,79.03
2023-07-11T04:38:07.655Z,78.40
2023-07-11T04:40:34.684Z,77.16
2023-07-11T04:43:02.013Z,75.65
2023-07-11T04:45:29.404Z,76.09
2023-07-11T04:47:56.610Z,75.95
2023-07-11T04:50:23.692Z,75.56
2023-07-11T04:52:50.993Z,75.12
2023-07-11T04:55:18.041Z,75.12
2023-07-11T04:57:45.247Z,74.81
2023-07-11T05:00:13.175Z,74.96
2023-07-11T05:02:40.241Z,74.61
2023-07-11T05:05:07.858Z,74.70
2023-07-11T05:07:35.065Z,74.80
2023-07-11T05:10:02.096Z,74.50
2023-07-11T05:12:29.398Z,73.03
2023-07-11T05:14:56.481Z,72.48
2023-07-11T05:17:23.670Z,72.58
2023-07-11T05:19:50.834Z,73.73
2023-07-11T05:22:17.805Z,71.59
2023-07-11T05:29:21.171Z,71.64
2023-07-11T05:31:48.269Z,70.01
2023-07-11T05:34:15.347Z,69.82
2023-07-11T05:36:42.341Z,71.31
2023-07-11T05:39:16.078Z,69.62
2023-07-11T05:41:47.210Z,69.01
2023-07-11T05:44:17.462Z,68.53
2023-07-11T05:46:47.803Z,67.43
2023-07-11T05:49:16.124Z,67.24
2023-07-11T05:51:43.207Z,66.76
2023-07-11T05:54:10.532Z,65.88
2023-07-11T05:56:37.664Z,66.87
2023-07-11T05:59:04.719Z,66.21
2023-07-11T06:01:33.248Z,64.39
2023-07-11T06:04:05.730Z,65.17
2023-07-11T06:06:36.018Z,65.75
2023-07-11T06:09:03.680Z,62.86
2023-07-11T06:11:30.645Z,63.89
2023-07-11T06:13:57.760Z,64.37
2023-07-11T06:16:24.960Z,65.03
2023-07-11T06:18:53.831Z,63.08
2023-07-11T06:21:21.100Z,62.56
2023-07-11T06:23:48.759Z,63.19
2023-07-11T06:26:16.333Z,62.19
2023-07-11T06:28:44.330Z,62.83
2023-07-11T06:31:13.763Z,62.48
2023-07-11T06:33:41.484Z,63.15
2023-07-11T06:36:09.973Z,61.22
2023-07-11T06:38:37.297Z,61.26
2023-07-11T06:41:04.524Z,59.88
2023-07-11T06:43:31.906Z,60.47
2023-07-11T06:46:02.182Z,58.70
2023-07-11T06:48:31.449Z,57.89
2023-07-11T06:51:04.002Z,58.93
2023-07-11T06:53:34.406Z,56.40
2023-07-11T06:56:02.468Z,58.01
2023-07-11T06:58:29.982Z,56.16
2023-07-11T07:01:07.552Z,55.24
2023-07-11T07:03:38.576Z,55.23
2023-07-11T07:06:09.993Z,54.10
2023-07-11T07:08:37.071Z,53.01
2023-07-11T07:11:04.562Z,56.55
2023-07-11T07:13:31.966Z,55.10
2023-07-11T07:16:00.634Z,53.92
2023-07-11T07:18:33.764Z,46.87
2023-07-11T07:21:01.088Z,48.20
2023-07-11T07:23:28.571Z,46.56
2023-07-11T07:25:58.748Z,45.03
2023-07-11T07:28:27.601Z,46.40
2023-07-11T07:30:56.148Z,47.69
2023-07-11T07:33:25.853Z,43.55
2023-07-11T07:36:00.316Z,45.89
2023-07-11T07:38:29.837Z,45.46
2023-07-11T07:41:02.428Z,47.27
2023-07-11T07:43:31.242Z,47.73
2023-07-11T07:46:00.248Z,47.22
2023-07-11T07:48:27.768Z,46.67
2023-07-11T07:51:04.258Z,46.43
2023-07-11T07:53:31.819Z,46.04
2023-07-11T07:56:06.637Z,46.31
2023-07-11T07:58:41.950Z,45.27
2023-07-11T08:01:12.345Z,44.18
2023-07-11T08:03:39.957Z,44.61
2023-07-11T08:08:37.698Z,45.87
2023-07-11T08:11:07.806Z,44.21
2023-07-11T08:13:53.642Z,43.90
2023-07-11T08:18:55.673Z,41.72
2023-07-11T08:21:22.768Z,42.89
2023-07-11T08:23:49.806Z,43.52
2023-07-11T08:26:16.855Z,42.40
2023-07-11T08:28:44.023Z,41.75
2023-07-11T08:31:11.552Z,43.11
2023-07-11T08:33:38.798Z,43.54
2023-07-11T08:36:06.117Z,42.08
2023-07-11T08:38:33.158Z,41.55
2023-07-11T08:41:16.687Z,40.40
2023-07-11T08:43:45.232Z,41.34
2023-07-11T08:46:15.902Z,42.32
2023-07-11T08:48:49.374Z,41.57
2023-07-11T08:51:32.582Z,38.44
2023-07-11T08:54:33.345Z,38.67
2023-07-11T08:57:00.544Z,38.79
2023-07-11T08:59:55.074Z,38.00
2023-07-11T09:02:28.251Z,39.15
2023-07-11T09:04:56.137Z,40.69
2023-07-11T09:07:41.210Z,40.16
2023-07-11T09:10:42.808Z,37.30
2023-07-11T09:13:48.485Z,36.93
2023-07-11T09:16:40.761Z,37.29
2023-07-11T09:19:27.390Z,37.52
2023-07-11T09:22:09.462Z,36.68
2023-07-11T09:24:56.693Z,38.66
2023-07-11T09:27:31.226Z,38.40
2023-07-11T09:29:58.350Z,38.14
2023-07-11T09:32:34.786Z,37.46
2023-07-11T09:35:33.182Z,36.49
2023-07-11T09:38:11.806Z,37.12
2023-07-11T09:40:43.903Z,35.33
2023-07-11T09:43:11.063Z,36.05
2023-07-11T10:18:31.205Z,37.70
2023-07-11T10:21:17.455Z,36.43
2023-07-11T10:23:47.542Z,38.60
2023-07-11T10:26:14.521Z,36.72
2023-07-11T10:28:45.332Z,37.84
2023-07-11T10:31:20.618Z,37.13
2023-07-11T10:34:14.863Z,36.73
2023-07-11T10:36:51.168Z,35.61
2023-07-11T10:39:21.262Z,34.75
2023-07-11T10:42:05.132Z,35.35
2023-07-11T10:44:38.459Z,34.94
2023-07-11T10:47:06.318Z,36.48
2023-07-11T10:49:45.624Z,34.32
2023-07-11T10:52:25.934Z,35.38
2023-07-11T10:54:52.850Z,36.22
2023-07-11T10:57:59.065Z,35.59
2023-07-11T11:00:51.911Z,36.40
2023-07-11T11:03:37.379Z,37.31
2023-07-11T11:06:07.309Z,37.32
2023-07-11T11:09:08.568Z,36.00
2023-07-11T11:11:55.715Z,37.05
2023-07-11T11:14:38.058Z,36.44
2023-07-11T11:17:50.894Z,37.16
2023-07-11T11:20:28.177Z,37.36
2023-07-11T11:23:24.980Z,36.24
2023-07-11T11:26:20.073Z,36.69
2023-07-11T11:29:21.274Z,36.25
2023-07-11T11:32:00.776Z,36.70
2023-07-11T11:34:33.345Z,36.78
2023-07-11T11:37:09.536Z,34.75
2023-07-11T11:40:12.795Z,34.58
2023-07-11T11:42:43.959Z,34.04
2023-07-11T11:49:37.129Z,35.54
2023-07-11T11:50:56.652Z,37.04
2023-07-11T11:53:32.773Z,36.15
2023-07-11T11:56:18.882Z,35.17
2023-07-11T11:59:02.791Z,34.56
2023-07-11T12:01:32.778Z,33.80
2023-07-11T12:04:00.079Z,34.02
2023-07-11T12:06:33.298Z,33.76
2023-07-11T12:09:18.619Z,33.58
2023-07-11T12:12:12.921Z,34.13
2023-07-11T12:14:54.681Z,34.20
2023-07-11T12:17:30.957Z,34.07
2023-07-11T12:20:10.320Z,33.59
2023-07-11T12:22:39.867Z,33.84
2023-07-11T12:25:06.895Z,34.30
2023-07-11T12:27:33.886Z,35.30
2023-07-11T12:30:05.016Z,36.70
2023-07-11T12:32:32.001Z,37.09
2023-07-11T12:35:09.525Z,36.51
2023-07-11T12:38:02.784Z,35.70
2023-07-11T12:41:08.006Z,35.47
2023-07-11T12:43:37.937Z,34.43
2023-07-11T12:46:38.016Z,33.87
2023-07-11T12:49:15.588Z,35.91
2023-07-11T12:56:18.126Z,38.34
2023-07-11T12:58:47.606Z,38.39
2023-07-11T13:01:16.918Z,38.93
2023-07-11T13:03:44.628Z,39.77
2023-07-11T13:06:34.109Z,38.81
2023-07-11T13:09:01.245Z,38.80
2023-07-11T13:11:30.583Z,38.68
2023-07-11T13:13:58.514Z,38.91
2023-07-11T13:16:35.286Z,38.51
2023-07-11T13:19:03.318Z,38.37
2023-07-11T13:21:30.628Z,38.53
2023-07-11T13:24:00.539Z,38.77
2023-07-11T13:26:31.118Z,39.56
2023-07-11T13:29:14.731Z,39.60
2023-07-11T13:31:42.133Z,41.68
2023-07-11T13:34:16.651Z,41.66
2023-07-11T13:36:48.999Z,42.00
2023-07-11T13:39:23.718Z,41.85
2023-07-11T13:41:59.222Z,42.36
2023-07-11T13:44:34.932Z,42.90
2023-07-11T13:47:05.383Z,43.20
2023-07-11T13:49:37.595Z,43.83
2023-07-11T13:52:05.328Z,44.44
2023-07-11T13:54:35.882Z,45.69
2023-07-11T13:57:04.952Z,46.28
2023-07-11T14:02:02.753Z,48.70
2023-07-11T14:04:36.323Z,48.78
2023-07-11T14:07:03.637Z,48.98
2023-07-11T14:09:30.568Z,50.21
2023-07-11T14:11:58.204Z,51.50
2023-07-11T14:14:39.089Z,51.58
2023-07-11T14:17:19.270Z,52.53
2023-07-11T14:19:46.614Z,52.61
2023-07-11T14:22:23.882Z,53.35
2023-07-11T14:24:51.000Z,53.42
2023-07-11T14:27:18.836Z,54.47
2023-07-11T14:29:46.494Z,54.21
2023-07-11T14:32:18.017Z,55.33
2023-07-11T14:34:45.186Z,55.25
2023-07-11T14:37:16.936Z,55.75
2023-07-11T14:39:45.044Z,56.29
2023-07-11T14:42:29.081Z,60.78
2023-07-11T14:44:56.690Z,62.56
2023-07-11T14:47:24.142Z,63.51
2023-07-11T14:49:51.201Z,65.17
2023-07-11T14:52:27.452Z,66.47
2023-07-11T14:59:55.161Z,70.32
2023-07-11T15:02:37.543Z,69.28
2023-07-11T15:10:09.414Z,74.29
2023-07-11T15:15:31.238Z,75.56
2023-07-11T15:17:59.128Z,76.55
2023-07-11T15:20:26.637Z,81.59
2023-07-11T15:22:59.910Z,87.48
2023-07-11T15:25:31.177Z,85.65
2023-07-11T15:27:59.560Z,83.85
2023-07-11T15:30:27.823Z,87.99
2023-07-11T15:32:54.917Z,89.59
2023-07-11T15:35:24.516Z,90.21
2023-07-11T15:37:52.923Z,90.65
2023-07-11T15:40:23.436Z,91.96
2023-07-11T15:42:51.643Z,93.59
2023-07-11T15:45:31.843Z,92.62
2023-07-11T15:48:00.003Z,89.36
2023-07-11T15:50:29.870Z,88.68
2023-07-11T15:52:56.973Z,88.63
2023-07-11T15:55:27.100Z,88.94
2023-07-11T15:57:56.877Z,86.86
2023-07-11T16:00:29.941Z,85.85
2023-07-11T16:02:58.143Z,84.03
2023-07-11T16:05:32.763Z,83.75
2023-07-11T16:07:59.982Z,82.70
2023-07-11T16:10:33.234Z,82.53
2023-07-11T16:13:02.083Z,83.13
2023-07-11T16:15:32.455Z,83.37
2023-07-11T16:18:00.105Z,83.26
2023-07-11T16:20:30.279Z,83.33
2023-07-11T16:22:57.347Z,83.77
2023-07-11T16:25:24.810Z,82.84
2023-07-11T16:27:55.178Z,82.59
2023-07-11T16:30:28.458Z,82.52
2023-07-11T16:32:56.347Z,82.42
2023-07-11T16:35:29.432Z,81.85
2023-07-11T16:38:03.225Z,82.21
2023-07-11T16:40:32.210Z,81.71
2023-07-11T16:42:59.238Z,81.41
2023-07-11T16:45:33.283Z,81.80
2023-07-11T16:48:00.485Z,82.23
2023-07-11T16:50:29.001Z,82.15
2023-07-11T16:52:58.463Z,82.84
2023-07-11T16:55:26.109Z,82.18
2023-07-11T16:57:53.616Z,85.10
2023-07-11T17:00:26.929Z,86.77
2023-07-11T17:02:54.405Z,88.33
2023-07-11T17:05:25.968Z,90.01
2023-07-11T17:07:54.525Z,91.10
2023-07-11T17:10:21.580Z,92.33
2023-07-11T17:12:48.609Z,91.05
2023-07-11T17:15:17.268Z,88.70
2023-07-11T17:17:45.145Z,88.97
2023-07-11T17:20:22.122Z,92.17
2023-07-11T17:22:50.680Z,90.28
2023-07-11T17:25:19.414Z,86.91
2023-07-11T17:27:49.805Z,85.66
2023-07-11T17:30:19.324Z,85.30
2023-07-11T17:32:47.842Z,86.15
2023-07-11T17:35:19.061Z,89.06
2023-07-11T17:37:50.669Z,88.05
2023-07-11T17:40:23.316Z,87.35
2023-07-11T17:42:50.834Z,87.89
2023-07-11T17:45:38.277Z,88.10
2023-07-11T17:48:18.072Z,87.27
2023-07-11T17:50:51.112Z,86.18
2023-07-11T17:53:19.447Z,85.19
2023-07-11T17:55:51.410Z,86.05
2023-07-11T17:58:21.070Z,86.88
2023-07-11T18:00:48.103Z,85.07
2023-07-11T18:03:15.915Z,84.23
2023-07-11T18:05:45.653Z,84.49
2023-07-11T18:08:18.367Z,84.67
2023-07-11T18:10:47.191Z,86.35
2023-07-11T18:13:14.382Z,84.50
2023-07-11T18:15:44.406Z,85.30
2023-07-11T18:18:28.826Z,87.09
2023-07-11T18:20:58.188Z,86.89
2023-07-11T18:23:25.847Z,86.75
2023-07-11T18:25:54.861Z,84.58
2023-07-11T18:28:23.643Z,85.18
2023-07-11T18:30:52.110Z,85.51
2023-07-11T18:33:20.474Z,86.62
2023-07-11T18:35:49.872Z,85.84
2023-07-11T18:38:20.714Z,87.28
2023-07-11T18:40:48.736Z,86.22
2023-07-11T18:43:15.964Z,84.63
2023-07-11T18:45:45.975Z,86.69
2023-07-11T18:48:14.820Z,86.97
2023-07-11T18:50:43.723Z,88.79
2023-07-11T18:53:11.398Z,87.89
2023-07-11T18:55:42.135Z,87.67
2023-07-11T18:58:11.253Z,88.48
2023-07-11T19:00:44.834Z,88.68
2023-07-11T19:03:12.090Z,90.55
2023-07-11T19:05:40.072Z,90.15
2023-07-11T19:08:22.817Z,92.69
2023-07-11T19:10:50.107Z,89.75
2023-07-11T19:13:17.879Z,89.22
2023-07-11T19:15:47.091Z,90.26
2023-07-11T19:18:23.497Z,89.30
2023-07-11T19:20:51.426Z,88.18
2023-07-11T19:23:24.240Z,87.44
2023-07-11T19:25:52.373Z,88.89
2023-07-11T19:28:30.968Z,91.53
2023-07-11T19:31:03.461Z,90.94
2023-07-11T19:33:30.596Z,89.41
2023-07-11T19:35:59.491Z,87.81
2023-07-11T19:38:29.018Z,88.32
2023-07-11T19:40:56.601Z,88.19
2023-07-11T19:43:24.287Z,88.15
2023-07-11T19:45:54.527Z,88.57
2023-07-11T19:48:24.947Z,88.72
2023-07-11T19:50:58.460Z,89.45
2023-07-11T19:53:25.937Z,90.22
2023-07-11T19:55:57.337Z,90.49
2023-07-11T19:58:28.937Z,91.13
2023-07-11T20:01:00.515Z,91.55
2023-07-11T20:03:33.082Z,92.36
2023-07-11T20:06:02.204Z,91.84
2023-07-11T20:08:34.415Z,92.10
2023-07-11T20:11:03.661Z,91.45
2023-07-11T20:13:31.978Z,91.18
2023-07-11T20:16:02.767Z,91.23
2023-07-11T20:18:32.572Z,91.21
2023-07-11T20:21:03.729Z,91.70
2023-07-11T20:23:31.339Z,91.99
2023-07-11T20:26:06.209Z,91.04
2023-07-11T20:28:33.473Z,90.33
2023-07-11T20:31:01.797Z,89.76
2023-07-11T20:33:28.997Z,88.83
2023-07-11T20:35:57.584Z,89.24
2023-07-11T20:38:24.972Z,88.90
2023-07-11T20:40:52.723Z,89.16
2023-07-11T20:43:20.300Z,89.60
2023-07-11T20:45:50.028Z,89.66
2023-07-11T20:48:20.730Z,90.31
2023-07-11T20:50:48.400Z,90.15
2023-07-11T20:53:16.019Z,89.24
2023-07-11T20:55:47.667Z,90.04
2023-07-11T20:58:19.552Z,90.51
2023-07-11T21:00:46.800Z,91.60
2023-07-11T21:03:19.334Z,91.73
2023-07-11T21:05:48.716Z,91.65
2023-07-11T21:08:30.442Z,92.68
2023-07-11T21:10:59.856Z,92.95
2023-07-11T21:13:27.034Z,93.54
2023-07-11T21:15:55.580Z,93.99
2023-07-11T21:18:23.905Z,94.51
2023-07-11T21:20:53.755Z,93.94
2023-07-11T21:23:22.473Z,93.33
2023-07-11T21:25:50.173Z,92.84
2023-07-11T21:28:34.020Z,92.02
2023-07-11T21:31:06.669Z,92.30
2023-07-11T21:33:34.459Z,92.36
2023-07-11T21:36:02.489Z,93.11
2023-07-11T21:38:31.830Z,93.01
2023-07-11T21:41:02.381Z,93.65
2023-07-11T21:43:29.432Z,94.11
2023-07-11T21:45:58.288Z,94.36
2023-07-11T21:48:27.054Z,94.59
2023-07-11T21:50:55.786Z,94.37
2023-07-11T21:53:25.760Z,94.43
2023-07-11T21:55:57.685Z,93.92
2023-07-11T21:58:26.295Z,93.83
2023-07-11T22:00:53.981Z,94.42
2023-07-11T22:03:27.413Z,94.63
2023-07-11T22:05:56.958Z,94.74
2023-07-11T22:08:28.872Z,95.22
2023-07-11T22:10:57.097Z,95.21
2023-07-11T22:13:29.513Z,95.88
2023-07-11T22:15:57.372Z,96.01
2023-07-11T22:18:30.690Z,96.56
2023-07-11T22:20:58.985Z,96.25
2023-07-11T22:23:26.184Z,95.97
2023-07-11T22:25:53.239Z,96.35
2023-07-11T22:28:22.456Z,95.74
2023-07-11T22:30:53.977Z,95.42
2023-07-11T22:33:21.211Z,96.38
2023-07-11T22:35:48.285Z,96.74
2023-07-11T22:38:17.211Z,97.46
2023-07-11T22:40:46.792Z,98.25
2023-07-11T22:43:16.553Z,98.05
2023-07-11T22:45:46.342Z,96.86
2023-07-11T22:48:18.528Z,95.42
2023-07-11T22:50:50.673Z,94.75
2023-07-11T22:53:21.302Z,94.84
2023-07-11T22:55:55.225Z,94.84
2023-07-11T22:58:32.676Z,95.00
2023-07-11T23:01:01.981Z,95.26
2023-07-11T23:03:29.964Z,94.59
2023-07-11T23:06:07.046Z,94.46
2023-07-11T23:08:34.044Z,94.52
2023-07-11T23:11:01.145Z,95.31
2023-07-11T23:13:28.188Z,95.05
2023-07-11T23:15:59.145Z,94.57
2023-07-11T23:18:27.991Z,94.61
2023-07-11T23:20:58.263Z,94.99
2023-07-11T23:23:25.194Z,95.07
2023-07-11T23:25:53.882Z,95.26
2023-07-11T23:28:25.846Z,96.42
2023-07-11T23:30:55.575Z,96.33
2023-07-11T23:33:25.141Z,96.31
2023-07-11T23:35:58.017Z,95.68
2023-07-11T23:38:27.531Z,95.34
2023-07-11T23:40:57.138Z,95.24
2023-07-11T23:43:37.606Z,95.19
2023-07-11T23:46:22.562Z,95.03
2023-07-11T23:48:53.719Z,93.74
2023-07-11T23:51:22.523Z,92.74
2023-07-11T23:53:51.075Z,91.71
2023-07-11T23:56:18.844Z,92.05
2023-07-11T23:58:46.487Z,91.47
